createdAt,value
2019-04-01T00:01:54.871Z,7.89
2019-04-01T00:04:21.976Z,7.80
2019-04-01T00:06:49.050Z,7.72
2019-04-01T00:09:16.504Z,7.66
2019-04-01T00:11:43.643Z,7.65
2019-04-01T00:14:10.721Z,7.73
2019-04-01T00:16:38.638Z,7.67
2019-04-01T00:19:05.820Z,7.66
2019-04-01T00:21:33.053Z,7.59
2019-04-01T00:24:00.501Z,7.53
2019-04-01T00:26:27.611Z,7.53
2019-04-01T00:28:54.803Z,7.41
2019-04-01T00:31:22.326Z,7.37
2019-04-01T00:33:49.400Z,7.36
2019-04-01T00:36:16.418Z,7.32
2019-04-01T00:38:43.937Z,7.32
2019-04-01T00:41:15.408Z,7.25
2019-04-01T00:43:56.536Z,7.24
2019-04-01T00:46:24.096Z,7.20
2019-04-01T00:48:52.215Z,7.14
2019-04-01T00:51:19.285Z,7.09
2019-04-01T00:53:47.531Z,7.10
2019-04-01T00:56:14.560Z,7.10
2019-04-01T00:58:44.158Z,7.06
2019-04-01T01:01:11.218Z,7.15
2019-04-01T01:03:38.250Z,7.06
2019-04-01T01:06:05.801Z,7.03
2019-04-01T01:08:32.866Z,7.13
2019-04-01T01:10:59.892Z,7.15
2019-04-01T01:13:26.991Z,7.01
2019-04-01T01:15:54.014Z,6.96
2019-04-01T01:18:21.068Z,7.04
2019-04-01T01:20:48.158Z,6.99
2019-04-01T01:23:15.174Z,6.95
2019-04-01T01:25:42.597Z,6.91
2019-04-01T01:28:09.719Z,6.87
2019-04-01T01:30:36.843Z,6.86
2019-04-01T01:33:04.288Z,6.78
2019-04-01T01:35:32.565Z,6.74
2019-04-01T01:37:59.600Z,6.74
2019-04-01T01:40:26.659Z,6.66
2019-04-01T01:42:53.730Z,6.64
2019-04-01T01:45:20.766Z,6.61
2019-04-01T01:47:47.791Z,6.60
2019-04-01T01:50:14.874Z,6.57
2019-04-01T01:52:42.315Z,6.65
2019-04-01T01:55:09.387Z,6.58
2019-04-01T01:57:36.481Z,6.51
2019-04-01T02:00:04.444Z,6.50
2019-04-01T02:02:32.705Z,6.41
2019-04-01T02:04:59.768Z,6.42
2019-04-01T02:07:26.814Z,6.39
2019-04-01T02:09:53.855Z,6.39
2019-04-01T02:12:20.885Z,6.28
2019-04-01T02:14:48.405Z,6.22
2019-04-01T02:17:15.473Z,6.25
2019-04-01T02:19:42.551Z,6.31
2019-04-01T02:22:09.609Z,6.28
2019-04-01T02:24:36.677Z,6.29
2019-04-01T02:27:03.727Z,6.30
2019-04-01T02:29:31.117Z,6.21
2019-04-01T02:31:58.267Z,6.20
2019-04-01T02:34:25.328Z,6.18
2019-04-01T02:36:53.496Z,6.15
2019-04-01T02:39:21.732Z,6.14
2019-04-01T02:41:48.793Z,6.12
2019-04-01T02:44:16.207Z,6.14
2019-04-01T02:46:43.270Z,6.15
2019-04-01T02:49:10.309Z,6.17
2019-04-01T02:51:37.382Z,6.11
2019-04-01T02:54:04.403Z,6.04
2019-04-01T02:56:31.522Z,6.09
2019-04-01T02:58:58.536Z,6.04
2019-04-01T03:01:26.036Z,6.07
2019-04-01T03:03:53.493Z,6.05
2019-04-01T03:06:20.502Z,5.97
2019-04-01T03:08:48.950Z,5.96
2019-04-01T03:11:16.442Z,5.95
2019-04-01T03:13:43.488Z,5.86
2019-04-01T03:16:10.567Z,5.85
2019-04-01T03:18:37.588Z,5.95
2019-04-01T03:21:04.665Z,5.93
2019-04-01T03:23:33.262Z,5.99
2019-04-01T03:26:00.373Z,5.95
2019-04-01T03:28:27.482Z,5.86
2019-04-01T03:30:55.233Z,5.88
2019-04-01T03:33:22.329Z,5.89
2019-04-01T03:35:49.395Z,5.82
2019-04-01T03:38:16.825Z,5.73
2019-04-01T03:40:43.959Z,5.85
2019-04-01T03:43:10.994Z,5.81
2019-04-01T03:45:38.691Z,5.72
2019-04-01T03:48:05.749Z,5.74
2019-04-01T03:50:32.771Z,5.72
2019-04-01T03:52:59.831Z,5.69
2019-04-01T03:55:26.887Z,5.66
2019-04-01T03:57:53.991Z,5.67
2019-04-01T04:00:21.647Z,5.61
2019-04-01T04:02:48.758Z,5.63
2019-04-01T04:05:15.970Z,5.61
2019-04-01T04:07:42.975Z,5.60
2019-04-01T04:10:10.343Z,5.64
2019-04-01T04:12:37.332Z,5.61
2019-04-01T04:15:06.497Z,5.56
2019-04-01T04:17:35.045Z,5.57
2019-04-01T04:20:02.301Z,5.55
2019-04-01T04:22:29.329Z,5.47
2019-04-01T04:24:56.711Z,5.42
2019-04-01T04:27:23.744Z,5.43
2019-04-01T04:29:51.099Z,5.49
2019-04-01T04:32:18.166Z,5.43
2019-04-01T04:34:45.194Z,5.40
2019-04-01T04:37:12.593Z,5.36
2019-04-01T04:39:39.923Z,5.35
2019-04-01T04:42:06.949Z,5.38
2019-04-01T04:44:33.987Z,5.39
2019-04-01T04:47:04.453Z,5.30
2019-04-01T04:49:31.495Z,5.39
2019-04-01T04:51:58.551Z,5.34
2019-04-01T04:54:26.138Z,5.33
2019-04-01T04:56:53.160Z,5.34
2019-04-01T04:59:20.207Z,5.36
2019-04-01T05:01:47.290Z,5.37
2019-04-01T05:04:14.491Z,5.31
2019-04-01T05:06:41.709Z,5.29
2019-04-01T05:09:09.234Z,5.28
2019-04-01T05:11:36.740Z,5.33
2019-04-01T05:14:03.826Z,5.32
2019-04-01T05:16:31.260Z,5.36
2019-04-01T05:18:58.315Z,5.33
2019-04-01T05:21:27.503Z,5.30
2019-04-01T05:23:55.404Z,5.36
2019-04-01T05:26:23.894Z,5.38
2019-04-01T05:28:52.819Z,5.39
2019-04-01T05:31:22.837Z,5.34
2019-04-01T05:33:55.636Z,5.31
2019-04-01T05:36:24.048Z,5.32
2019-04-01T05:38:51.761Z,5.49
2019-04-01T05:41:20.294Z,5.57
2019-04-01T05:43:49.698Z,5.57
2019-04-01T05:46:16.962Z,5.54
2019-04-01T05:48:44.012Z,5.63
2019-04-01T05:51:11.749Z,5.63
2019-04-01T05:53:38.838Z,5.72
2019-04-01T05:56:06.901Z,5.76
2019-04-01T05:58:34.540Z,5.80
2019-04-01T06:01:11.740Z,5.98
2019-04-01T06:03:39.162Z,5.77
2019-04-01T06:06:07.191Z,6.20
2019-04-01T06:08:34.683Z,6.22
2019-04-01T06:11:01.808Z,6.08
2019-04-01T06:13:28.852Z,6.28
2019-04-01T06:15:56.768Z,6.62
2019-04-01T06:18:23.953Z,6.51
2019-04-01T06:20:51.321Z,6.78
2019-04-01T06:23:18.386Z,6.51
2019-04-01T06:25:45.858Z,6.47
2019-04-01T06:28:13.067Z,6.71
2019-04-01T06:30:40.639Z,6.49
2019-04-01T06:33:08.687Z,7.00
2019-04-01T06:35:35.792Z,7.37
2019-04-01T06:38:02.937Z,7.18
2019-04-01T06:40:30.068Z,7.47
2019-04-01T06:42:57.451Z,7.17
2019-04-01T06:45:24.660Z,7.24
2019-04-01T06:47:51.870Z,7.31
2019-04-01T06:50:18.896Z,7.59
2019-04-01T06:52:45.987Z,7.44
2019-04-01T06:55:13.264Z,7.62
2019-04-01T06:57:40.921Z,7.49
2019-04-01T07:00:08.249Z,7.64
2019-04-01T07:02:35.443Z,7.87
2019-04-01T07:05:03.622Z,7.91
2019-04-01T07:07:31.759Z,7.88
2019-04-01T07:09:58.849Z,8.04
2019-04-01T07:12:25.940Z,8.29
2019-04-01T07:14:53.339Z,8.10
2019-04-01T07:17:20.836Z,8.79
2019-04-01T07:19:50.410Z,9.30
2019-04-01T07:22:19.338Z,9.60
2019-04-01T07:24:46.454Z,9.37
2019-04-01T07:27:13.469Z,9.47
2019-04-01T07:29:40.485Z,9.59
2019-04-01T07:32:07.566Z,9.34
2019-04-01T07:34:34.649Z,9.58
2019-04-01T07:37:02.359Z,9.66
2019-04-01T07:39:29.448Z,10.18
2019-04-01T07:41:56.543Z,9.91
2019-04-01T07:44:23.662Z,10.00
2019-04-01T07:46:50.808Z,10.24
2019-04-01T07:49:17.846Z,10.75
2019-04-01T07:51:48.626Z,10.80
2019-04-01T07:54:18.510Z,10.58
2019-04-01T07:56:44.803Z,10.84
2019-04-01T07:59:12.685Z,10.90
2019-04-01T08:01:41.568Z,10.39
2019-04-01T08:04:08.728Z,10.80
2019-04-01T08:06:35.765Z,11.22
2019-04-01T08:09:05.108Z,10.43
2019-04-01T08:11:32.536Z,10.71
2019-04-01T08:14:00.168Z,10.92
2019-04-01T08:16:27.402Z,11.28
2019-04-01T08:18:54.545Z,12.05
2019-04-01T08:21:21.677Z,12.24
2019-04-01T08:23:48.743Z,12.34
2019-04-01T08:26:16.187Z,12.40
2019-04-01T08:28:43.320Z,12.54
2019-04-01T08:31:13.309Z,12.77
2019-04-01T08:33:41.922Z,13.09
2019-04-01T08:36:09.300Z,12.81
2019-04-01T08:38:36.761Z,12.93
2019-04-01T08:41:04.532Z,12.73
2019-04-01T08:43:31.588Z,12.60
2019-04-01T08:45:59.083Z,12.44
2019-04-01T08:48:26.812Z,12.15
2019-04-01T08:50:53.889Z,12.88
2019-04-01T08:53:20.992Z,11.96
2019-04-01T08:55:48.467Z,11.92
2019-04-01T08:58:15.609Z,12.69
2019-04-01T09:00:42.897Z,12.93
2019-04-01T09:03:10.082Z,13.32
2019-04-01T09:05:37.760Z,13.79
2019-04-01T09:08:04.916Z,14.51
2019-04-01T09:10:35.842Z,14.74
2019-04-01T09:13:02.869Z,14.87
2019-04-01T09:15:31.954Z,14.32
2019-04-01T09:17:59.007Z,12.99
2019-04-01T09:20:26.100Z,13.53
2019-04-01T09:22:54.327Z,13.74
2019-04-01T09:25:21.793Z,13.55
2019-04-01T09:27:48.941Z,13.19
2019-04-01T09:30:18.718Z,13.96
2019-04-01T09:32:45.749Z,14.45
2019-04-01T09:35:13.073Z,15.24
2019-04-01T09:37:40.188Z,14.66
2019-04-01T09:40:07.986Z,14.13
2019-04-01T09:42:35.186Z,14.01
2019-04-01T09:45:02.521Z,14.96
2019-04-01T09:47:31.142Z,15.00
2019-04-01T09:49:58.228Z,15.05
2019-04-01T09:52:25.378Z,15.26
2019-04-01T09:54:52.412Z,16.32
2019-04-01T09:57:19.434Z,16.88
2019-04-01T09:59:46.617Z,17.84
2019-04-01T10:02:13.942Z,17.71
2019-04-01T10:04:41.085Z,18.28
2019-04-01T10:07:08.192Z,18.91
2019-04-01T10:09:35.574Z,19.58
2019-04-01T10:12:02.826Z,18.35
2019-04-01T10:14:29.945Z,18.44
2019-04-01T10:16:57.594Z,19.52
2019-04-01T10:19:24.732Z,19.76
2019-04-01T10:21:52.326Z,19.93
2019-04-01T10:24:20.237Z,18.59
2019-04-01T10:26:48.630Z,18.65
2019-04-01T10:29:16.039Z,18.08
2019-04-01T10:31:43.086Z,19.57
2019-04-01T10:34:10.796Z,21.86
2019-04-01T10:36:37.968Z,20.43
2019-04-01T10:39:06.521Z,19.88
2019-04-01T10:41:34.056Z,20.25
2019-04-01T10:44:04.623Z,20.91
2019-04-01T10:46:30.170Z,20.13
2019-04-01T10:48:58.960Z,21.70
2019-04-01T10:51:26.159Z,22.15
2019-04-01T10:53:53.467Z,20.30
2019-04-01T10:56:21.106Z,21.93
2019-04-01T10:58:48.230Z,20.39
2019-04-01T11:01:15.235Z,23.75
2019-04-01T11:03:42.651Z,23.68
2019-04-01T11:06:09.761Z,24.08
2019-04-01T11:08:36.772Z,23.23
2019-04-01T11:11:04.510Z,22.70
2019-04-01T11:13:32.130Z,24.14
2019-04-01T11:15:59.379Z,25.35
2019-04-01T11:18:26.589Z,24.21
2019-04-01T11:20:56.704Z,25.02
2019-04-01T11:23:23.020Z,26.11
2019-04-01T11:25:50.085Z,27.42
2019-04-01T11:28:17.330Z,27.19
2019-04-01T11:30:44.367Z,25.23
2019-04-01T11:33:11.549Z,24.96
2019-04-01T11:35:38.716Z,24.52
2019-04-01T11:38:05.750Z,25.35
2019-04-01T11:40:33.305Z,26.10
2019-04-01T11:43:00.950Z,28.65
2019-04-01T11:45:29.625Z,29.68
2019-04-01T11:47:57.308Z,31.11
2019-04-01T11:50:25.314Z,31.53
2019-04-01T11:52:53.046Z,29.70
2019-04-01T11:55:20.115Z,29.52
2019-04-01T11:57:47.397Z,31.24
2019-04-01T12:00:17.276Z,32.25
2019-04-01T12:02:46.158Z,27.59
2019-04-01T12:05:15.218Z,25.99
2019-04-01T12:07:42.340Z,25.34
2019-04-01T12:10:09.797Z,26.04
2019-04-01T12:12:36.918Z,27.71
2019-04-01T12:15:05.002Z,29.18
2019-04-01T12:17:32.661Z,28.64
2019-04-01T12:19:59.777Z,26.73
2019-04-01T12:22:26.804Z,26.62
2019-04-01T12:24:54.427Z,24.38
2019-04-01T12:27:21.755Z,25.56
2019-04-01T12:29:50.373Z,25.96
2019-04-01T12:32:17.485Z,26.69
2019-04-01T12:34:44.570Z,27.22
2019-04-01T12:37:12.919Z,29.07
2019-04-01T12:39:41.226Z,30.62
2019-04-01T12:42:08.676Z,30.83
2019-04-01T12:44:35.743Z,28.27
2019-04-01T12:47:03.865Z,27.88
2019-04-01T12:49:31.143Z,24.38
2019-04-01T12:52:05.859Z,24.22
2019-04-01T12:54:39.250Z,24.55
2019-04-01T12:57:07.355Z,27.05
2019-04-01T12:59:34.703Z,29.38
2019-04-01T13:02:01.792Z,29.06
2019-04-01T13:04:28.932Z,28.30
2019-04-01T13:06:57.138Z,28.74
2019-04-01T13:09:24.662Z,31.50
2019-04-01T13:11:51.736Z,31.53
2019-04-01T13:14:18.762Z,30.49
2019-04-01T13:16:45.901Z,30.06
2019-04-01T13:19:12.959Z,28.71
2019-04-01T13:21:40.569Z,25.13
2019-04-01T13:24:07.673Z,25.52
2019-04-01T13:26:34.706Z,27.74
2019-04-01T13:29:01.780Z,27.83
2019-04-01T13:31:29.823Z,27.31
2019-04-01T13:33:56.982Z,28.91
2019-04-01T13:36:24.082Z,28.42
2019-04-01T13:38:51.457Z,27.37
2019-04-01T13:41:18.522Z,29.15
2019-04-01T13:43:50.052Z,27.64
2019-04-01T13:46:17.179Z,28.32
2019-04-01T13:48:56.865Z,27.70
2019-04-01T13:51:17.088Z,26.29
2019-04-01T13:53:44.570Z,27.11
2019-04-01T13:56:13.458Z,28.77
2019-04-01T13:58:46.058Z,29.94
2019-04-01T14:01:13.557Z,28.42
2019-04-01T14:03:45.040Z,25.57
2019-04-01T14:06:39.912Z,25.37
2019-04-01T14:12:51.351Z,29.47
2019-04-01T14:15:18.679Z,28.08
2019-04-01T14:17:46.139Z,28.42
2019-04-01T14:20:16.250Z,27.22
2019-04-01T14:22:53.693Z,27.23
2019-04-01T14:25:36.661Z,29.65
2019-04-01T14:28:10.135Z,29.39
2019-04-01T14:30:39.700Z,28.05
2019-04-01T14:33:07.579Z,27.75
2019-04-01T14:35:35.633Z,25.22
2019-04-01T14:38:04.081Z,27.85
2019-04-01T14:40:35.562Z,24.98
2019-04-01T14:43:02.648Z,25.25
2019-04-01T14:45:34.658Z,24.10
2019-04-01T14:48:02.634Z,24.47
2019-04-01T14:50:30.257Z,24.20
2019-04-01T14:52:58.039Z,25.03
2019-04-01T14:55:25.310Z,26.19
2019-04-01T14:57:52.415Z,26.03
2019-04-01T15:00:20.479Z,27.03
2019-04-01T15:02:47.666Z,26.31
2019-04-01T15:05:15.245Z,27.17
2019-04-01T15:07:42.290Z,27.80
2019-04-01T15:10:11.175Z,26.73
2019-04-01T15:12:38.737Z,26.04
2019-04-01T15:15:10.714Z,25.31
2019-04-01T15:17:37.905Z,25.09
2019-04-01T15:20:06.776Z,23.64
2019-04-01T15:22:33.834Z,24.87
2019-04-01T15:25:00.923Z,25.00
2019-04-01T15:27:29.406Z,25.33
2019-04-01T15:29:57.393Z,24.23
2019-04-01T15:32:26.631Z,25.33
2019-04-01T15:34:53.715Z,28.32
2019-04-01T15:37:20.786Z,30.03
2019-04-01T15:39:49.695Z,29.09
2019-04-01T15:42:17.610Z,26.11
2019-04-01T15:44:44.728Z,26.71
2019-04-01T15:47:11.846Z,27.78
2019-04-01T15:49:40.087Z,28.54
2019-04-01T15:52:07.358Z,27.47
2019-04-01T15:54:34.514Z,27.04
2019-04-01T15:57:01.908Z,26.58
2019-04-01T15:59:30.048Z,25.54
2019-04-01T16:01:59.101Z,26.22
2019-04-01T16:04:27.423Z,24.72
2019-04-01T16:06:56.060Z,24.25
2019-04-01T16:09:24.385Z,23.83
2019-04-01T16:11:54.137Z,23.56
2019-04-01T16:14:21.778Z,24.49
2019-04-01T16:16:48.940Z,24.48
2019-04-01T16:19:16.077Z,23.86
2019-04-01T16:21:43.155Z,24.50
2019-04-01T16:24:11.167Z,23.87
2019-04-01T16:26:38.551Z,23.19
2019-04-01T16:29:05.728Z,23.80
2019-04-01T16:31:34.626Z,23.88
2019-04-01T16:34:02.212Z,23.62
2019-04-01T16:36:29.641Z,23.42
2019-04-01T16:38:56.854Z,23.24
2019-04-01T16:41:23.987Z,22.66
2019-04-01T16:43:51.155Z,22.21
2019-04-01T16:46:18.551Z,22.14
2019-04-01T16:48:48.169Z,22.78
2019-04-01T16:51:15.220Z,22.29
2019-04-01T16:53:44.353Z,22.45
2019-04-01T16:56:11.645Z,22.24
2019-04-01T16:58:38.762Z,21.99
2019-04-01T17:01:06.176Z,21.36
2019-04-01T17:03:33.652Z,21.34
2019-04-01T17:06:07.122Z,20.62
2019-04-01T17:08:34.831Z,20.55
2019-04-01T17:11:02.639Z,20.21
2019-04-01T17:13:29.905Z,20.06
2019-04-01T17:15:56.962Z,19.73
2019-04-01T17:18:24.600Z,19.51
2019-04-01T17:20:53.156Z,19.37
2019-04-01T17:23:20.543Z,19.34
2019-04-01T17:25:47.831Z,19.22
2019-04-01T17:28:16.272Z,19.00
2019-04-01T17:30:43.693Z,18.99
2019-04-01T17:33:11.261Z,18.60
2019-04-01T17:35:38.641Z,18.32
2019-04-01T17:38:07.291Z,18.05
2019-04-01T17:40:34.538Z,17.94
2019-04-01T17:43:01.851Z,17.74
2019-04-01T17:45:37.282Z,17.48
2019-04-01T17:48:05.591Z,17.16
2019-04-01T17:50:34.878Z,16.95
2019-04-01T17:53:03.760Z,16.74
2019-04-01T17:55:30.870Z,16.61
2019-04-01T17:57:58.121Z,16.37
2019-04-01T18:00:27.307Z,16.33
2019-04-01T18:02:54.705Z,16.23
2019-04-01T18:05:21.972Z,16.09
2019-04-01T18:07:50.643Z,15.96
2019-04-01T18:10:18.244Z,15.88
2019-04-01T18:12:45.602Z,15.74
2019-04-01T18:15:13.255Z,15.65
2019-04-01T18:17:41.290Z,15.54
2019-04-01T18:20:09.177Z,15.43
2019-04-01T18:22:37.942Z,15.41
2019-04-01T18:25:05.440Z,15.37
2019-04-01T18:27:32.597Z,15.35
2019-04-01T18:29:59.842Z,15.28
2019-04-01T18:32:27.072Z,15.18
2019-04-01T18:34:54.133Z,15.13
2019-04-01T18:37:21.542Z,15.06
2019-04-01T18:39:50.838Z,15.05
2019-04-01T18:42:18.444Z,14.99
2019-04-01T18:44:46.635Z,14.85
2019-04-01T18:47:13.674Z,14.80
2019-04-01T18:49:45.906Z,14.69
2019-04-01T18:52:13.473Z,14.63
2019-04-01T18:54:42.196Z,14.59
2019-04-01T18:57:12.307Z,14.50
2019-04-01T18:59:39.621Z,14.48
2019-04-01T19:02:07.377Z,14.43
2019-04-01T19:04:34.490Z,14.32
2019-04-01T19:07:01.802Z,14.23
2019-04-01T19:09:28.837Z,14.31
2019-04-01T19:12:03.838Z,14.30
2019-04-01T19:14:25.039Z,14.21
2019-04-01T19:16:53.432Z,14.09
2019-04-01T19:19:20.497Z,14.03
2019-04-01T19:21:47.688Z,13.93
2019-04-01T19:24:16.628Z,13.86
2019-04-01T19:26:44.964Z,13.74
2019-04-01T19:29:12.637Z,13.69
2019-04-01T19:31:41.288Z,13.65
2019-04-01T19:34:08.882Z,13.62
2019-04-01T19:36:37.817Z,13.59
2019-04-01T19:39:09.348Z,13.54
2019-04-01T19:41:39.679Z,13.47
2019-04-01T19:44:06.994Z,13.44
2019-04-01T19:46:34.593Z,13.41
2019-04-01T19:49:04.968Z,13.45
2019-04-01T19:51:30.866Z,13.27
2019-04-01T19:53:58.534Z,13.27
2019-04-01T19:56:28.576Z,13.23
2019-04-01T19:58:55.673Z,13.15
2019-04-01T20:01:25.003Z,12.85
2019-04-01T20:03:52.147Z,12.48
2019-04-01T20:06:19.284Z,12.35
2019-04-01T20:08:49.604Z,12.32
2019-04-01T20:11:15.751Z,12.35
2019-04-01T20:13:43.375Z,12.56
2019-04-01T20:16:12.714Z,12.76
2019-04-01T20:18:42.447Z,12.68
2019-04-01T20:21:09.799Z,12.71
2019-04-01T20:23:37.014Z,12.81
2019-04-01T20:26:04.119Z,12.88
2019-04-01T20:28:31.625Z,12.79
2019-04-01T20:31:00.676Z,12.83
2019-04-01T20:33:27.754Z,12.95
2019-04-01T20:35:54.827Z,12.98
2019-04-01T20:38:22.025Z,12.98
2019-04-01T20:40:50.555Z,12.82
2019-04-01T20:43:19.070Z,12.90
2019-04-01T20:45:46.137Z,12.71
2019-04-01T20:48:13.269Z,12.62
2019-04-01T20:50:42.131Z,12.50
2019-04-01T20:53:09.557Z,12.45
2019-04-01T20:55:47.585Z,12.27
2019-04-01T20:58:05.985Z,12.04
2019-04-01T21:00:34.155Z,11.97
2019-04-01T21:03:01.693Z,11.90
2019-04-01T21:05:28.929Z,11.88
2019-04-01T21:07:56.292Z,11.83
2019-04-01T21:10:23.382Z,11.73
2019-04-01T21:12:50.631Z,11.59
2019-04-01T21:15:18.382Z,11.49
2019-04-01T21:17:47.332Z,11.45
2019-04-01T21:20:14.673Z,11.42
2019-04-01T21:22:41.748Z,11.43
2019-04-01T21:25:09.371Z,11.33
2019-04-01T21:27:36.811Z,11.30
2019-04-01T21:30:06.116Z,11.30
2019-04-01T21:32:34.529Z,11.26
2019-04-01T21:35:01.625Z,11.25
2019-04-01T21:37:28.679Z,11.18
2019-04-01T21:39:56.563Z,11.19
2019-04-01T21:42:24.578Z,11.20
2019-04-01T21:44:51.629Z,11.22
2019-04-01T21:47:18.957Z,11.13
2019-04-01T21:49:46.309Z,11.00
2019-04-01T21:52:13.349Z,10.90
2019-04-01T21:54:40.530Z,11.01
2019-04-01T21:57:09.804Z,11.10
2019-04-01T21:59:36.878Z,11.13
2019-04-01T22:02:05.582Z,11.13
2019-04-01T22:04:33.990Z,11.17
2019-04-01T22:07:01.272Z,11.16
2019-04-01T22:09:28.691Z,11.13
2019-04-01T22:11:55.816Z,11.18
2019-04-01T22:14:23.005Z,11.20
2019-04-01T22:16:50.113Z,11.13
2019-04-01T22:19:17.599Z,11.14
2019-04-01T22:21:44.640Z,11.22
2019-04-01T22:24:11.807Z,11.21
2019-04-01T22:26:38.896Z,11.28
2019-04-01T22:29:05.936Z,11.15
2019-04-01T22:31:34.088Z,11.12
2019-04-01T22:34:01.170Z,11.08
2019-04-01T22:36:31.328Z,11.18
2019-04-01T22:39:00.839Z,11.23
2019-04-01T22:41:29.282Z,11.04
2019-04-01T22:43:57.865Z,10.77
2019-04-01T22:46:24.990Z,10.70
2019-04-01T22:48:52.060Z,10.53
2019-04-01T22:51:21.174Z,10.35
2019-04-01T22:53:48.321Z,10.20
2019-04-01T22:56:15.407Z,10.18
2019-04-01T22:58:42.474Z,10.38
2019-04-01T23:01:09.625Z,10.38
2019-04-01T23:03:36.814Z,10.25
2019-04-01T23:06:06.071Z,10.13
2019-04-01T23:08:33.172Z,10.05
2019-04-01T23:11:00.773Z,10.03
2019-04-01T23:13:28.031Z,10.04
2019-04-01T23:15:55.095Z,9.94
2019-04-01T23:18:22.193Z,10.06
2019-04-01T23:20:49.721Z,9.93
2019-04-01T23:23:18.614Z,9.85
2019-04-01T23:25:45.968Z,9.74
2019-04-01T23:28:13.369Z,9.71
2019-04-01T23:30:42.227Z,9.74
2019-04-01T23:33:09.796Z,9.71
2019-04-01T23:35:37.176Z,9.70
2019-04-01T23:38:04.237Z,9.67
2019-04-01T23:40:33.226Z,9.67
2019-04-01T23:43:01.642Z,9.59
2019-04-01T23:45:28.675Z,9.47
2019-04-01T23:47:56.833Z,9.41
2019-04-01T23:50:23.863Z,9.27
2019-04-01T23:52:50.906Z,9.06
2019-04-01T23:55:18.377Z,8.78
2019-04-01T23:57:45.413Z,8.65
